createdAt,value
2022-08-19T00:00:12.092Z,13.60
2022-08-19T00:01:05.898Z,14.80
2022-08-19T00:01:40.951Z,15.50
2022-08-19T00:02:13.970Z,15.00
2022-08-19T00:02:50.051Z,15.30
2022-08-19T00:03:23.564Z,16.60
2022-08-19T00:04:01.346Z,16.50
2022-08-19T00:04:38.241Z,16.20
2022-08-19T00:05:12.984Z,15.80
2022-08-19T00:05:46.767Z,16.90
2022-08-19T00:06:19.969Z,15.40
2022-08-19T00:06:54.730Z,16.80
2022-08-19T00:07:27.890Z,18.20
2022-08-19T00:08:01.223Z,17.10
2022-08-19T00:08:35.178Z,18.20
2022-08-19T00:09:11.931Z,17.20
2022-08-19T00:09:45.150Z,16.50
2022-08-19T00:10:20.413Z,17.00
2022-08-19T00:10:53.584Z,17.30
2022-08-19T00:11:28.889Z,16.60
2022-08-19T00:12:02.940Z,17.10
2022-08-19T00:12:36.830Z,16.30
2022-08-19T00:13:20.318Z,15.10
2022-08-19T00:13:54.325Z,15.80
2022-08-19T00:14:33.649Z,15.60
2022-08-19T00:15:12.893Z,16.40
2022-08-19T00:15:45.983Z,17.70
2022-08-19T00:16:25.161Z,16.20
2022-08-19T00:17:33.376Z,15.80
2022-08-19T00:18:06.417Z,17.50
2022-08-19T00:18:39.502Z,18.00
2022-08-19T00:19:13.764Z,17.00
2022-08-19T00:19:47.262Z,17.20
2022-08-19T00:20:22.965Z,17.10
2022-08-19T00:20:56.672Z,16.70
2022-08-19T00:21:30.079Z,17.70
2022-08-19T00:22:04.481Z,16.60
2022-08-19T00:22:39.251Z,16.20
2022-08-19T00:23:12.702Z,17.40
2022-08-19T00:23:45.866Z,16.60
2022-08-19T00:24:20.161Z,18.00
2022-08-19T00:24:53.533Z,17.40
2022-08-19T00:25:30.407Z,17.00
2022-08-19T00:26:06.296Z,16.90
2022-08-19T00:26:40.787Z,16.40
2022-08-19T00:27:25.657Z,16.50
2022-08-19T00:28:00.895Z,15.10
2022-08-19T00:28:37.072Z,15.20
2022-08-19T00:29:13.360Z,14.80
2022-08-19T00:29:46.480Z,14.60
2022-08-19T00:30:28.399Z,14.80
2022-08-19T00:31:01.938Z,13.70
2022-08-19T00:31:35.374Z,15.40
2022-08-19T00:32:10.716Z,13.70
2022-08-19T00:32:44.156Z,14.00
2022-08-19T00:33:17.805Z,15.00
2022-08-19T00:33:51.784Z,13.90
2022-08-19T00:34:29.932Z,13.60
2022-08-19T00:35:03.159Z,14.00
2022-08-19T00:35:36.359Z,13.50
2022-08-19T00:36:10.570Z,14.20
2022-08-19T00:36:44.730Z,13.40
2022-08-19T00:37:17.929Z,14.70
2022-08-19T00:37:51.884Z,14.60
2022-08-19T00:38:27.266Z,14.60
2022-08-19T00:39:11.386Z,13.30
2022-08-19T00:39:44.599Z,14.40
2022-08-19T00:40:20.526Z,13.10
2022-08-19T00:40:53.735Z,14.30
2022-08-19T00:41:27.879Z,13.70
2022-08-19T00:42:01.131Z,14.20
2022-08-19T00:42:34.456Z,14.60
2022-08-19T00:43:14.321Z,14.30
2022-08-19T00:44:05.610Z,14.00
2022-08-19T00:44:39.831Z,12.20
2022-08-19T00:45:18.466Z,13.80
2022-08-19T00:45:52.938Z,14.70
2022-08-19T00:46:27.073Z,14.40
2022-08-19T00:47:01.067Z,14.80
2022-08-19T00:47:34.466Z,15.10
2022-08-19T00:48:14.751Z,15.30
2022-08-19T00:48:48.436Z,13.70
2022-08-19T00:49:27.868Z,12.10
2022-08-19T00:50:01.207Z,12.30
2022-08-19T00:50:35.711Z,13.10
2022-08-19T00:51:30.841Z,12.70
2022-08-19T00:52:15.378Z,13.00
2022-08-19T00:52:52.352Z,13.00
2022-08-19T00:53:28.759Z,13.10
2022-08-19T00:54:03.959Z,12.30
2022-08-19T00:54:40.546Z,12.80
2022-08-19T00:55:22.048Z,12.30
2022-08-19T00:55:59.535Z,13.00
2022-08-19T00:56:32.791Z,13.60
2022-08-19T00:57:10.691Z,13.20
2022-08-19T00:57:49.595Z,12.50
2022-08-19T00:58:28.753Z,14.90
2022-08-19T00:59:10.527Z,13.80
2022-08-19T01:00:00.325Z,13.80
2022-08-19T01:00:38.429Z,12.90
2022-08-19T01:01:12.206Z,12.60
2022-08-19T01:01:47.208Z,12.10
2022-08-19T01:02:21.057Z,12.50
2022-08-19T01:02:55.300Z,13.40
2022-08-19T01:03:56.914Z,13.00
2022-08-19T01:04:23.480Z,12.80
2022-08-19T01:04:57.455Z,13.60
2022-08-19T01:05:31.201Z,13.80
2022-08-19T01:06:04.396Z,13.50
2022-08-19T01:06:39.506Z,13.50
2022-08-19T01:07:15.212Z,13.70
2022-08-19T01:07:52.884Z,13.50
2022-08-19T01:08:26.282Z,14.40
2022-08-19T01:09:00.878Z,14.30
2022-08-19T01:09:35.336Z,13.30
2022-08-19T01:10:17.681Z,13.40
2022-08-19T01:10:59.442Z,12.20
2022-08-19T01:11:42.299Z,12.90
2022-08-19T01:12:17.009Z,12.60
2022-08-19T01:12:52.309Z,13.30
2022-08-19T01:13:49.395Z,12.20
2022-08-19T01:14:25.518Z,12.20
2022-08-19T01:15:00.243Z,11.90
2022-08-19T01:15:39.683Z,11.60
2022-08-19T01:16:14.416Z,11.90
2022-08-19T01:16:48.303Z,12.00
2022-08-19T01:17:22.390Z,11.50
2022-08-19T01:17:58.200Z,11.60
2022-08-19T01:18:33.697Z,11.60
2022-08-19T01:19:26.353Z,11.80
2022-08-19T01:19:59.839Z,12.60
2022-08-19T01:20:35.794Z,12.10
2022-08-19T01:21:48.677Z,12.20
2022-08-19T01:22:30.063Z,12.20
2022-08-19T01:23:04.620Z,13.90
2022-08-19T01:23:46.607Z,13.40
2022-08-19T01:24:19.829Z,13.70
2022-08-19T01:24:53.568Z,13.80
2022-08-19T01:25:36.403Z,13.30
2022-08-19T01:26:15.059Z,13.00
2022-08-19T01:26:48.866Z,13.20
2022-08-19T01:27:22.411Z,13.00
2022-08-19T01:27:55.742Z,12.30
2022-08-19T01:28:39.865Z,12.70
2022-08-19T01:29:13.993Z,13.50
2022-08-19T01:29:49.040Z,13.80
2022-08-19T01:30:26.728Z,13.70
2022-08-19T01:31:00.105Z,13.70
2022-08-19T01:31:33.553Z,14.00
2022-08-19T01:32:09.052Z,14.30
2022-08-19T01:33:03.230Z,14.00
2022-08-19T01:33:36.484Z,13.70
2022-08-19T01:34:10.326Z,13.00
2022-08-19T01:34:48.169Z,14.10
2022-08-19T01:35:24.639Z,12.70
2022-08-19T01:36:10.525Z,13.60
2022-08-19T01:36:50.433Z,13.50
2022-08-19T01:37:24.918Z,13.00
2022-08-19T01:38:07.231Z,12.80
2022-08-19T01:38:44.640Z,13.60
2022-08-19T01:39:24.289Z,14.70
2022-08-19T01:39:58.188Z,12.90
2022-08-19T01:40:34.573Z,13.40
2022-08-19T01:41:10.819Z,13.50
2022-08-19T01:41:44.694Z,14.60
2022-08-19T01:42:18.434Z,14.30
2022-08-19T01:42:52.409Z,13.70
2022-08-19T01:43:25.789Z,12.80
2022-08-19T01:44:16.914Z,12.70
2022-08-19T01:44:52.349Z,13.50
2022-08-19T01:45:28.843Z,13.20
2022-08-19T01:46:02.098Z,12.90
2022-08-19T01:46:35.652Z,12.80
2022-08-19T01:47:10.877Z,12.50
2022-08-19T01:47:44.402Z,12.10
2022-08-19T01:48:31.566Z,12.60
2022-08-19T01:49:07.286Z,11.90
2022-08-19T01:49:40.610Z,12.70
2022-08-19T01:50:15.321Z,13.40
2022-08-19T01:50:49.194Z,12.20
2022-08-19T01:51:22.649Z,12.80
2022-08-19T01:51:56.239Z,13.40
2022-08-19T01:52:29.345Z,13.40
2022-08-19T01:53:06.730Z,13.30
2022-08-19T01:53:41.932Z,13.40
2022-08-19T01:54:23.394Z,14.00
2022-08-19T01:55:01.248Z,14.20
2022-08-19T01:55:40.846Z,13.80
2022-08-19T01:56:14.807Z,14.80
2022-08-19T01:56:50.089Z,13.70
2022-08-19T01:57:24.401Z,14.40
2022-08-19T01:58:01.317Z,14.60
2022-08-19T01:58:46.360Z,14.40
2022-08-19T01:59:23.461Z,15.10
2022-08-19T01:59:57.947Z,14.10
2022-08-19T02:00:33.714Z,14.80
2022-08-19T02:01:08.674Z,14.60
2022-08-19T02:01:42.491Z,14.10
2022-08-19T02:02:15.853Z,14.50
2022-08-19T02:02:49.189Z,14.20
2022-08-19T02:03:22.410Z,14.50
2022-08-19T02:03:56.880Z,13.90
2022-08-19T02:04:30.251Z,14.80
2022-08-19T02:05:05.420Z,14.20
2022-08-19T02:05:39.896Z,14.60
2022-08-19T02:06:13.444Z,16.30
2022-08-19T02:06:46.612Z,15.30
2022-08-19T02:07:23.033Z,15.40
2022-08-19T02:07:57.721Z,14.90
2022-08-19T02:08:31.715Z,14.50
2022-08-19T02:09:09.389Z,14.50
2022-08-19T02:09:42.899Z,14.90
2022-08-19T02:10:21.012Z,13.80
2022-08-19T02:10:54.949Z,14.20
2022-08-19T02:11:32.952Z,13.60
2022-08-19T02:12:09.080Z,15.00
2022-08-19T02:12:42.298Z,15.30
2022-08-19T02:13:15.400Z,15.20
2022-08-19T02:13:50.635Z,15.40
2022-08-19T02:14:24.715Z,14.50
2022-08-19T02:14:58.348Z,14.30
2022-08-19T02:15:31.499Z,15.60
2022-08-19T02:16:04.697Z,15.10
2022-08-19T02:16:38.752Z,14.10
2022-08-19T02:17:11.760Z,15.00
2022-08-19T02:17:44.978Z,14.50
2022-08-19T02:18:18.201Z,15.20
2022-08-19T02:18:52.332Z,14.90
2022-08-19T02:19:25.570Z,14.90
2022-08-19T02:19:58.999Z,15.60
2022-08-19T02:20:32.405Z,15.00
2022-08-19T02:21:05.887Z,13.90
2022-08-19T02:21:39.106Z,12.90
2022-08-19T02:22:12.199Z,14.80
2022-08-19T02:22:45.502Z,13.50
2022-08-19T02:23:18.982Z,12.70
2022-08-19T02:23:52.262Z,13.50
2022-08-19T02:24:25.951Z,13.60
2022-08-19T02:24:59.176Z,12.50
2022-08-19T02:25:32.473Z,13.30
2022-08-19T02:26:06.333Z,13.30
2022-08-19T02:26:39.431Z,13.00
2022-08-19T02:27:12.951Z,12.90
2022-08-19T02:27:46.194Z,12.50
2022-08-19T02:28:19.433Z,12.60
2022-08-19T02:28:52.460Z,13.50
2022-08-19T02:29:25.618Z,14.10
2022-08-19T02:29:59.017Z,14.20
2022-08-19T02:30:32.577Z,13.80
2022-08-19T02:31:15.870Z,13.20
2022-08-19T02:31:49.329Z,13.30
2022-08-19T02:32:22.723Z,13.50
2022-08-19T02:32:56.165Z,14.00
2022-08-19T02:33:30.676Z,13.90
2022-08-19T02:34:04.318Z,14.50
2022-08-19T02:34:37.486Z,14.30
2022-08-19T02:35:12.339Z,14.10
2022-08-19T02:35:47.952Z,14.70
2022-08-19T02:36:21.363Z,15.30
2022-08-19T02:36:55.312Z,13.90
2022-08-19T02:37:47.587Z,15.00
2022-08-19T02:38:26.648Z,13.60
2022-08-19T02:39:00.002Z,13.80
2022-08-19T02:39:33.620Z,13.30
2022-08-19T02:40:12.740Z,14.20
2022-08-19T02:40:53.011Z,13.80
2022-08-19T02:41:29.305Z,14.00
2022-08-19T02:42:03.316Z,14.50
2022-08-19T02:42:36.628Z,14.50
2022-08-19T02:43:10.428Z,14.00
2022-08-19T02:44:22.927Z,14.80
2022-08-19T02:44:38.334Z,15.40
2022-08-19T02:45:11.772Z,14.80
2022-08-19T02:45:45.086Z,14.30
2022-08-19T02:46:19.278Z,14.50
2022-08-19T02:46:52.631Z,14.30
2022-08-19T02:47:26.250Z,15.70
2022-08-19T02:47:59.344Z,14.90
2022-08-19T02:48:34.168Z,15.60
2022-08-19T02:49:09.338Z,15.20
2022-08-19T02:49:43.047Z,15.00
2022-08-19T02:50:16.206Z,15.30
2022-08-19T02:50:56.516Z,14.50
2022-08-19T02:51:40.044Z,15.90
2022-08-19T02:52:13.710Z,15.10
2022-08-19T02:52:46.874Z,15.90
2022-08-19T02:53:20.295Z,15.30
2022-08-19T02:53:54.716Z,16.30
2022-08-19T02:54:28.553Z,15.60
2022-08-19T02:55:02.466Z,16.00
2022-08-19T02:55:46.028Z,17.60
2022-08-19T02:56:21.162Z,15.30
2022-08-19T02:56:54.335Z,15.50
2022-08-19T02:57:28.784Z,15.30
2022-08-19T02:58:02.734Z,15.80
2022-08-19T02:58:41.979Z,15.70
2022-08-19T02:59:16.444Z,16.00
2022-08-19T02:59:49.564Z,16.20
2022-08-19T03:00:22.777Z,16.30
2022-08-19T03:00:58.123Z,16.30
2022-08-19T03:01:33.718Z,16.50
2022-08-19T03:02:06.810Z,16.60
2022-08-19T03:02:40.690Z,15.80
2022-08-19T03:03:13.888Z,16.70
2022-08-19T03:03:47.881Z,16.10
2022-08-19T03:04:20.963Z,16.40
2022-08-19T03:04:54.123Z,16.40
2022-08-19T03:05:55.761Z,18.30
2022-08-19T03:06:23.021Z,16.40
2022-08-19T03:06:59.569Z,17.00
2022-08-19T03:07:36.436Z,16.50
2022-08-19T03:08:13.708Z,16.80
2022-08-19T03:08:48.614Z,16.60
2022-08-19T03:09:22.086Z,15.80
2022-08-19T03:09:55.380Z,16.80
2022-08-19T03:10:29.122Z,15.90
2022-08-19T03:11:02.255Z,16.70
2022-08-19T03:11:36.582Z,17.10
2022-08-19T03:12:09.789Z,15.80
2022-08-19T03:12:43.058Z,16.10
2022-08-19T03:13:19.613Z,15.40
2022-08-19T03:13:54.983Z,15.90
2022-08-19T03:14:29.148Z,16.40
2022-08-19T03:15:02.324Z,15.70
2022-08-19T03:15:35.464Z,15.70
2022-08-19T03:16:08.559Z,15.80
2022-08-19T03:16:53.591Z,15.60
2022-08-19T03:17:26.711Z,14.20
2022-08-19T03:17:59.802Z,15.50
2022-08-19T03:18:32.994Z,15.80
2022-08-19T03:19:06.143Z,14.90
2022-08-19T03:19:39.552Z,15.50
2022-08-19T03:20:12.778Z,15.50
2022-08-19T03:20:49.310Z,14.70
2022-08-19T03:21:26.840Z,15.30
2022-08-19T03:31:43.423Z,15.20
2022-08-19T03:32:32.229Z,14.70
2022-08-19T03:33:07.160Z,14.90
2022-08-19T03:33:43.084Z,13.70
2022-08-19T03:34:27.450Z,14.50
2022-08-19T03:35:00.941Z,15.20
2022-08-19T03:35:34.566Z,15.90
2022-08-19T03:36:16.318Z,15.30
2022-08-19T03:36:49.853Z,14.70
2022-08-19T03:37:23.686Z,14.30
2022-08-19T03:37:58.230Z,15.50
2022-08-19T03:38:31.688Z,14.20
2022-08-19T03:39:05.691Z,14.40
2022-08-19T03:39:40.771Z,15.20
2022-08-19T03:40:16.710Z,14.30
2022-08-19T03:40:50.196Z,14.40
2022-08-19T03:41:26.055Z,14.00
2022-08-19T03:42:38.643Z,14.20
2022-08-19T03:43:11.395Z,14.60
2022-08-19T03:43:48.066Z,14.20
2022-08-19T03:44:23.581Z,14.60
2022-08-19T03:44:56.892Z,14.60
2022-08-19T03:45:30.425Z,15.30
2022-08-19T03:46:06.553Z,14.90
2022-08-19T03:46:39.777Z,15.40
2022-08-19T03:47:18.141Z,16.30
2022-08-19T03:47:51.282Z,15.50
2022-08-19T03:48:24.962Z,15.00
2022-08-19T03:49:00.464Z,15.20
2022-08-19T03:49:36.875Z,15.20
2022-08-19T03:50:10.548Z,16.10
2022-08-19T03:50:44.621Z,15.50
2022-08-19T03:51:30.706Z,15.70
2022-08-19T03:52:08.608Z,15.30
2022-08-19T03:52:45.438Z,14.70
2022-08-19T03:53:20.213Z,15.60
2022-08-19T03:53:56.019Z,15.50
2022-08-19T03:54:30.250Z,14.20
2022-08-19T03:55:04.558Z,15.40
2022-08-19T03:55:42.558Z,15.40
2022-08-19T03:56:16.604Z,14.90
2022-08-19T03:56:51.975Z,15.40
2022-08-19T03:57:25.159Z,13.80
2022-08-19T03:58:05.544Z,15.50
2022-08-19T03:58:38.956Z,14.60
2022-08-19T03:59:23.648Z,16.00
2022-08-19T03:59:56.786Z,15.10
2022-08-19T04:00:46.994Z,14.80
2022-08-19T04:01:34.890Z,15.70
2022-08-19T04:02:12.196Z,15.30
2022-08-19T04:02:56.513Z,15.50
2022-08-19T04:03:31.948Z,14.80
2022-08-19T04:04:05.767Z,17.40
2022-08-19T04:04:41.511Z,15.80
2022-08-19T04:05:15.691Z,16.10
2022-08-19T04:05:48.918Z,15.20
2022-08-19T04:06:25.441Z,14.90
2022-08-19T04:06:58.657Z,16.10
2022-08-19T04:07:31.853Z,15.40
2022-08-19T04:08:09.702Z,16.10
2022-08-19T04:08:47.396Z,15.80
2022-08-19T04:09:21.795Z,15.30
2022-08-19T04:09:55.083Z,15.60
2022-08-19T04:10:29.922Z,15.80
2022-08-19T04:11:07.853Z,15.30
2022-08-19T04:11:45.155Z,15.00
2022-08-19T04:12:18.725Z,15.60
2022-08-19T04:12:52.071Z,16.40
2022-08-19T04:13:25.316Z,15.60
2022-08-19T04:13:58.714Z,15.10
2022-08-19T04:14:32.900Z,15.70
2022-08-19T04:15:07.331Z,16.20
2022-08-19T04:15:44.750Z,14.80
2022-08-19T04:16:21.074Z,14.70
2022-08-19T04:17:06.142Z,15.90
2022-08-19T04:17:39.327Z,15.70
2022-08-19T04:18:12.629Z,15.40
2022-08-19T04:18:46.018Z,15.10
2022-08-19T04:19:20.391Z,15.60
2022-08-19T04:19:53.609Z,15.10
2022-08-19T04:20:27.328Z,15.90
2022-08-19T04:21:02.077Z,15.50
2022-08-19T04:21:35.811Z,15.50
2022-08-19T04:22:09.076Z,15.30
2022-08-19T04:22:42.400Z,15.60
2022-08-19T04:23:16.292Z,15.00
2022-08-19T04:23:50.064Z,15.20
2022-08-19T04:24:26.377Z,15.70
2022-08-19T04:24:59.646Z,15.20
2022-08-19T04:25:38.497Z,14.90
2022-08-19T04:26:35.096Z,15.70
2022-08-19T04:27:08.339Z,14.90
2022-08-19T04:27:48.064Z,15.40
2022-08-19T04:28:21.174Z,15.20
2022-08-19T04:28:54.956Z,15.70
2022-08-19T04:29:28.807Z,15.30
2022-08-19T04:30:02.028Z,14.80
2022-08-19T04:31:01.221Z,15.10
2022-08-19T04:31:36.975Z,14.30
2022-08-19T04:32:10.240Z,14.80
2022-08-19T04:32:44.944Z,15.10
2022-08-19T04:33:23.995Z,14.60
2022-08-19T04:34:02.707Z,14.80
2022-08-19T04:34:35.977Z,15.10
2022-08-19T04:35:17.473Z,15.50
2022-08-19T04:35:54.000Z,15.40
2022-08-19T04:36:34.281Z,14.60
2022-08-19T04:37:14.466Z,15.40
2022-08-19T04:37:47.800Z,14.50
2022-08-19T04:38:25.840Z,15.20
2022-08-19T04:39:02.131Z,14.60
2022-08-19T04:39:54.108Z,15.10
2022-08-19T04:40:52.399Z,14.10
2022-08-19T04:41:45.450Z,15.20
2022-08-19T04:42:39.021Z,14.00
2022-08-19T04:43:15.152Z,14.30
2022-08-19T04:43:51.731Z,14.90
2022-08-19T04:44:25.208Z,14.90
2022-08-19T04:45:00.026Z,15.30
2022-08-19T04:45:39.460Z,15.70
2022-08-19T04:46:37.534Z,15.20
2022-08-19T04:47:11.174Z,15.60
2022-08-19T04:47:47.072Z,15.20
2022-08-19T04:48:28.138Z,15.20
2022-08-19T04:49:10.343Z,14.50
2022-08-19T04:49:43.827Z,14.90
2022-08-19T04:50:17.108Z,15.60
2022-08-19T04:50:50.410Z,15.00
2022-08-19T04:51:24.312Z,15.40
2022-08-19T04:51:57.457Z,15.90
2022-08-19T04:52:33.424Z,14.50
2022-08-19T04:53:06.509Z,15.50
2022-08-19T04:53:43.540Z,15.20
2022-08-19T04:54:37.248Z,16.30
2022-08-19T04:55:13.824Z,14.90
2022-08-19T04:55:46.886Z,15.50
2022-08-19T04:56:27.337Z,15.90
2022-08-19T04:57:00.520Z,15.20
2022-08-19T04:57:33.599Z,15.10
2022-08-19T04:58:07.880Z,15.70
2022-08-19T04:58:43.779Z,16.40
2022-08-19T04:59:19.989Z,16.20
2022-08-19T04:59:57.331Z,16.40
2022-08-19T05:00:30.579Z,16.20
2022-08-19T05:01:05.206Z,15.70
2022-08-19T05:01:38.464Z,16.10
2022-08-19T05:02:11.736Z,15.30
2022-08-19T05:02:44.855Z,16.50
2022-08-19T05:03:18.615Z,16.40
2022-08-19T05:03:51.868Z,15.80
2022-08-19T05:04:24.909Z,16.80
2022-08-19T05:05:00.860Z,15.90
2022-08-19T05:05:45.083Z,15.40
2022-08-19T05:06:21.073Z,16.90
2022-08-19T05:07:00.913Z,16.60
2022-08-19T05:07:35.408Z,16.00
2022-08-19T05:08:09.004Z,17.30
2022-08-19T05:08:44.606Z,17.50
2022-08-19T05:09:18.215Z,16.10
2022-08-19T05:09:58.323Z,17.20
2022-08-19T05:10:32.434Z,17.20
2022-08-19T05:11:15.711Z,17.80
2022-08-19T05:11:54.140Z,17.40
2022-08-19T05:12:30.003Z,17.00
2022-08-19T05:13:03.915Z,17.40
2022-08-19T05:13:37.039Z,17.00
2022-08-19T05:14:14.219Z,17.90
2022-08-19T05:14:48.512Z,19.50
2022-08-19T05:15:21.718Z,18.10
2022-08-19T05:15:58.348Z,17.30
2022-08-19T05:16:32.725Z,17.90
2022-08-19T05:17:26.112Z,17.40
2022-08-19T05:18:18.190Z,16.10
2022-08-19T05:19:13.779Z,16.20
2022-08-19T05:20:25.790Z,16.60
2022-08-19T05:21:17.597Z,16.10
2022-08-19T05:22:09.776Z,16.60
2022-08-19T05:22:46.586Z,15.50
2022-08-19T05:23:22.794Z,16.70
2022-08-19T05:23:56.432Z,16.60
2022-08-19T05:24:30.631Z,16.30
2022-08-19T05:25:16.368Z,16.10
2022-08-19T05:25:49.757Z,16.20
2022-08-19T05:26:23.128Z,16.30
2022-08-19T05:27:00.352Z,16.10
2022-08-19T05:27:34.013Z,16.20
2022-08-19T05:28:07.096Z,17.10
2022-08-19T05:28:40.492Z,15.70
2022-08-19T05:29:16.828Z,16.90
2022-08-19T05:29:49.944Z,16.20
2022-08-19T05:30:30.241Z,17.10
2022-08-19T05:31:15.728Z,16.60
2022-08-19T05:31:53.121Z,15.80
2022-08-19T05:32:26.423Z,16.20
2022-08-19T05:32:59.725Z,16.10
2022-08-19T05:33:32.897Z,17.30
2022-08-19T05:34:07.417Z,15.60
2022-08-19T05:34:53.748Z,16.20
2022-08-19T05:35:27.031Z,16.60
2022-08-19T05:36:00.511Z,14.80
2022-08-19T05:36:44.421Z,16.30
2022-08-19T05:37:18.363Z,16.50
2022-08-19T05:37:52.694Z,15.90
2022-08-19T05:39:05.765Z,14.90
2022-08-19T05:39:39.559Z,15.80
2022-08-19T05:40:12.927Z,14.50
2022-08-19T05:40:48.268Z,15.20
2022-08-19T05:41:24.505Z,15.60
2022-08-19T05:42:00.665Z,15.20
2022-08-19T05:42:33.770Z,15.70
2022-08-19T05:43:09.254Z,14.80
2022-08-19T05:43:42.968Z,15.20
2022-08-19T05:44:18.027Z,14.90
2022-08-19T05:44:52.391Z,14.40
2022-08-19T05:45:26.087Z,14.80
2022-08-19T05:45:59.637Z,15.30
2022-08-19T05:46:33.600Z,14.40
2022-08-19T05:47:09.702Z,14.20
2022-08-19T05:47:42.850Z,13.60
2022-08-19T05:48:16.131Z,14.20
2022-08-19T05:48:49.889Z,13.10
2022-08-19T05:49:28.483Z,14.30
2022-08-19T05:50:05.032Z,13.80
2022-08-19T05:50:40.652Z,13.00
2022-08-19T05:51:14.601Z,13.70
2022-08-19T05:51:51.235Z,14.10
2022-08-19T05:52:25.893Z,13.30
2022-08-19T05:52:59.931Z,12.30
2022-08-19T05:53:34.924Z,12.90
2022-08-19T05:54:14.627Z,12.50
2022-08-19T05:54:51.445Z,13.80
2022-08-19T05:55:25.134Z,13.00
2022-08-19T05:55:58.404Z,14.10
2022-08-19T05:56:32.970Z,14.30
2022-08-19T05:57:06.275Z,13.20
2022-08-19T05:57:39.767Z,14.10
2022-08-19T05:58:13.012Z,14.30
2022-08-19T05:58:46.755Z,13.00
2022-08-19T05:59:22.684Z,13.20
2022-08-19T06:00:01.486Z,13.10
2022-08-19T06:00:36.039Z,12.50
2022-08-19T06:01:17.711Z,13.50
2022-08-19T06:01:52.816Z,12.90
2022-08-19T06:02:29.929Z,13.00
2022-08-19T06:03:11.866Z,12.90
2022-08-19T06:03:48.917Z,12.90
2022-08-19T06:04:23.330Z,13.70
2022-08-19T06:04:56.704Z,12.40
2022-08-19T06:05:31.554Z,12.50
2022-08-19T06:06:06.668Z,12.30
2022-08-19T06:06:40.429Z,12.90
2022-08-19T06:07:14.080Z,12.90
2022-08-19T06:07:48.311Z,12.80
2022-08-19T06:08:33.490Z,12.50
2022-08-19T06:09:09.183Z,12.20
2022-08-19T06:09:59.047Z,12.80
2022-08-19T06:10:34.813Z,13.00
2022-08-19T06:11:55.995Z,13.70
2022-08-19T06:12:33.000Z,12.50
2022-08-19T06:13:07.126Z,12.60
2022-08-19T06:13:40.385Z,12.00
2022-08-19T06:14:18.366Z,11.80
2022-08-19T06:14:56.036Z,12.30
2022-08-19T06:15:34.995Z,11.80
2022-08-19T06:16:08.624Z,12.20
2022-08-19T06:16:43.507Z,11.30
2022-08-19T06:17:17.282Z,12.00
2022-08-19T06:17:52.450Z,12.10
2022-08-19T06:18:25.954Z,13.10
2022-08-19T06:19:01.879Z,11.80
2022-08-19T06:19:41.057Z,11.80
2022-08-19T06:20:16.230Z,11.90
2022-08-19T06:20:55.993Z,12.50
2022-08-19T06:21:31.361Z,14.50
2022-08-19T06:22:05.907Z,13.80
2022-08-19T06:22:44.339Z,12.70
2022-08-19T06:23:17.919Z,11.50
2022-08-19T06:23:53.361Z,12.40
2022-08-19T06:24:29.073Z,12.90
2022-08-19T06:25:02.682Z,11.00
2022-08-19T06:25:37.206Z,12.60
2022-08-19T06:26:13.797Z,12.60
2022-08-19T06:27:27.629Z,11.80
2022-08-19T06:28:16.270Z,12.10
2022-08-19T06:28:50.156Z,13.60
2022-08-19T06:29:25.608Z,11.90
2022-08-19T06:29:58.869Z,12.90
2022-08-19T06:30:32.256Z,12.70
2022-08-19T06:31:08.710Z,12.50
2022-08-19T06:31:45.596Z,11.40
2022-08-19T06:32:20.486Z,12.40
2022-08-19T06:32:53.781Z,11.60
2022-08-19T06:33:27.198Z,12.40
2022-08-19T06:34:05.104Z,12.00
2022-08-19T06:34:38.378Z,11.30
2022-08-19T06:35:12.517Z,11.40
2022-08-19T06:36:37.389Z,10.70
2022-08-19T06:37:10.661Z,11.20
2022-08-19T06:37:44.228Z,11.50
2022-08-19T06:38:17.412Z,11.90
2022-08-19T06:38:50.712Z,11.10
2022-08-19T06:39:26.812Z,10.90
2022-08-19T06:40:00.404Z,11.30
2022-08-19T06:40:33.701Z,11.70
2022-08-19T06:41:08.127Z,11.50
2022-08-19T06:41:49.364Z,11.00
2022-08-19T06:42:25.210Z,10.90
2022-08-19T06:43:01.267Z,10.10
2022-08-19T06:43:41.223Z,11.20
2022-08-19T06:44:16.589Z,10.30
2022-08-19T06:44:53.586Z,10.80
2022-08-19T06:45:35.507Z,10.60
2022-08-19T06:46:15.049Z,9.90
2022-08-19T06:46:53.582Z,10.10
2022-08-19T06:47:29.071Z,10.70
2022-08-19T06:48:02.634Z,10.80
2022-08-19T06:48:44.952Z,10.00
2022-08-19T06:49:19.532Z,10.50
2022-08-19T06:50:02.918Z,10.40
2022-08-19T06:50:36.762Z,11.00
2022-08-19T06:51:16.842Z,11.10
2022-08-19T06:51:52.610Z,10.70
2022-08-19T06:52:25.820Z,10.80
2022-08-19T06:53:03.593Z,10.70
2022-08-19T06:53:38.271Z,10.30
2022-08-19T06:54:19.001Z,9.90
2022-08-19T06:54:55.763Z,10.70
2022-08-19T06:55:31.509Z,11.20
2022-08-19T06:56:06.895Z,10.40
2022-08-19T06:56:40.243Z,9.70
2022-08-19T06:57:16.301Z,10.10
2022-08-19T06:57:52.269Z,10.40
2022-08-19T06:58:25.628Z,10.90
2022-08-19T06:58:59.968Z,10.40
2022-08-19T06:59:36.333Z,10.30
2022-08-19T07:00:15.041Z,10.50
2022-08-19T07:00:48.200Z,10.70
2022-08-19T07:01:21.756Z,9.70
2022-08-19T07:01:57.973Z,10.60
2022-08-19T07:02:31.442Z,11.20
2022-08-19T07:03:08.240Z,10.10
2022-08-19T07:03:42.098Z,10.10
2022-08-19T07:04:17.781Z,10.20
2022-08-19T07:04:52.827Z,10.90
2022-08-19T07:05:26.421Z,10.30
2022-08-19T07:06:09.815Z,9.80
2022-08-19T07:06:55.060Z,9.80
2022-08-19T07:07:28.661Z,10.20
2022-08-19T07:08:04.964Z,10.70
2022-08-19T07:08:42.373Z,10.10
2022-08-19T07:09:19.424Z,10.40
2022-08-19T07:09:59.974Z,10.00
2022-08-19T07:10:36.449Z,10.10
2022-08-19T07:11:11.763Z,9.60
2022-08-19T07:11:50.418Z,9.70
2022-08-19T07:12:23.748Z,9.30
2022-08-19T07:12:57.261Z,9.40
2022-08-19T07:13:30.785Z,9.90
2022-08-19T07:14:04.264Z,10.10
2022-08-19T07:14:38.877Z,9.20
2022-08-19T07:15:13.974Z,8.80
2022-08-19T07:15:48.204Z,9.20
2022-08-19T07:16:29.131Z,9.00
2022-08-19T07:17:03.144Z,9.90
2022-08-19T07:17:39.141Z,8.90
2022-08-19T07:18:12.474Z,9.50
2022-08-19T07:18:45.667Z,9.20
2022-08-19T07:19:21.356Z,9.00
2022-08-19T07:19:54.849Z,8.80
2022-08-19T07:20:29.537Z,9.70
2022-08-19T07:21:11.160Z,9.30
2022-08-19T07:21:44.687Z,8.50
2022-08-19T07:22:19.237Z,8.90
2022-08-19T07:22:52.651Z,9.00
2022-08-19T07:23:27.115Z,9.60
2022-08-19T07:24:04.056Z,9.90
2022-08-19T07:24:40.410Z,10.50
2022-08-19T07:25:32.077Z,9.00
2022-08-19T07:26:10.753Z,9.10
2022-08-19T07:26:45.079Z,9.30
2022-08-19T07:27:18.881Z,9.40
2022-08-19T07:27:58.184Z,8.50
2022-08-19T07:28:33.395Z,9.60
2022-08-19T07:29:08.255Z,9.00
2022-08-19T07:29:41.821Z,8.80
2022-08-19T07:30:15.413Z,9.10
2022-08-19T07:30:49.999Z,9.20
2022-08-19T07:31:28.423Z,8.50
2022-08-19T07:32:05.773Z,8.40
2022-08-19T07:32:45.106Z,8.10
2022-08-19T07:33:19.425Z,8.90
2022-08-19T07:33:56.497Z,8.30
2022-08-19T07:34:31.768Z,9.00
2022-08-19T07:35:06.073Z,8.70
2022-08-19T07:35:39.410Z,8.90
2022-08-19T07:36:15.601Z,9.60
2022-08-19T07:36:48.901Z,7.90
2022-08-19T07:37:22.086Z,8.30
2022-08-19T07:37:55.839Z,8.40
2022-08-19T07:38:29.321Z,9.00
2022-08-19T07:39:09.735Z,8.80
2022-08-19T07:39:43.063Z,9.00
2022-08-19T07:40:16.750Z,8.60
2022-08-19T07:40:50.059Z,8.70
2022-08-19T07:41:26.543Z,9.00
2022-08-19T07:42:02.139Z,8.60
2022-08-19T07:42:35.536Z,9.40
2022-08-19T07:43:12.337Z,9.80
2022-08-19T07:43:48.942Z,9.70
2022-08-19T07:44:22.748Z,9.40
2022-08-19T07:44:56.576Z,8.40
2022-08-19T07:45:30.665Z,9.00
2022-08-19T07:46:04.480Z,9.00
2022-08-19T07:46:41.477Z,8.70
2022-08-19T07:47:48.215Z,8.50
2022-08-19T07:48:10.145Z,8.80
2022-08-19T07:48:46.824Z,8.30
2022-08-19T07:49:21.647Z,8.30
2022-08-19T07:49:55.221Z,9.10
2022-08-19T07:50:28.599Z,8.30
2022-08-19T07:51:04.483Z,8.80
2022-08-19T07:51:38.449Z,8.50
2022-08-19T07:52:12.404Z,9.70
2022-08-19T07:52:49.021Z,8.80
2022-08-19T07:53:24.158Z,8.80
2022-08-19T07:53:57.915Z,8.40
2022-08-19T07:54:35.811Z,8.50
2022-08-19T07:55:40.334Z,9.30
2022-08-19T07:56:07.380Z,8.80
2022-08-19T07:56:41.589Z,8.70
2022-08-19T07:57:15.409Z,9.40
2022-08-19T07:57:49.822Z,8.80
2022-08-19T07:58:24.438Z,8.80
2022-08-19T07:58:58.393Z,8.80
2022-08-19T07:59:32.480Z,9.70
2022-08-19T08:00:08.253Z,9.10
2022-08-19T08:00:44.120Z,8.80
2022-08-19T08:01:23.686Z,8.50
2022-08-19T08:02:01.858Z,9.60
2022-08-19T08:02:36.154Z,9.30
2022-08-19T08:03:10.701Z,9.30